createdAt,value
2023-02-06T00:04:30.504Z,2.50
2023-02-06T00:09:32.667Z,2.70
2023-02-06T00:14:34.840Z,2.97
2023-02-06T00:19:38.349Z,2.70
2023-02-06T00:24:41.336Z,2.58
2023-02-06T00:29:43.432Z,3.00
2023-02-06T00:34:45.607Z,2.70
2023-02-06T00:39:47.732Z,2.72
2023-02-06T00:44:49.823Z,2.70
2023-02-06T00:49:52.000Z,3.08
2023-02-06T00:54:54.122Z,5.35
2023-02-06T00:59:56.225Z,2.72
2023-02-06T01:04:58.322Z,3.10
2023-02-06T01:10:00.463Z,2.72
2023-02-06T01:15:02.979Z,2.55
2023-02-06T01:20:06.716Z,2.40
2023-02-06T01:25:09.045Z,2.03
2023-02-06T01:30:12.137Z,2.72
2023-02-06T01:35:14.326Z,2.60
2023-02-06T01:40:17.382Z,3.28
2023-02-06T01:45:22.147Z,2.22
2023-02-06T01:50:24.597Z,2.50
2023-02-06T01:55:26.871Z,2.88
2023-02-06T02:00:29.047Z,2.42
2023-02-06T02:05:33.569Z,2.85
2023-02-06T02:10:36.188Z,2.58
2023-02-06T02:16:03.167Z,2.60
2023-02-06T02:21:26.288Z,2.20
2023-02-06T02:26:49.977Z,3.35
2023-02-06T02:32:09.974Z,2.17
2023-02-06T02:37:26.243Z,2.40
2023-02-06T02:42:57.190Z,2.65
2023-02-06T02:48:08.654Z,2.40
2023-02-06T02:53:11.742Z,2.30
2023-02-06T02:58:19.818Z,2.53
2023-02-06T03:03:25.505Z,2.28
2023-02-06T03:08:46.482Z,2.67
2023-02-06T03:13:55.975Z,2.90
2023-02-06T03:19:14.193Z,2.33
2023-02-06T03:24:21.724Z,2.80
2023-02-06T03:29:25.379Z,2.35
2023-02-06T03:35:02.314Z,3.05
2023-02-06T03:40:06.552Z,2.85
2023-02-06T03:45:11.395Z,2.60
2023-02-06T03:50:15.508Z,2.83
2023-02-06T03:55:22.754Z,3.00
2023-02-06T04:00:26.337Z,2.30
2023-02-06T04:05:28.978Z,2.78
2023-02-06T04:10:31.341Z,2.88
2023-02-06T04:15:33.674Z,3.30
2023-02-06T04:20:41.145Z,3.55
2023-02-06T04:25:43.220Z,3.42
2023-02-06T04:30:45.387Z,3.42
2023-02-06T04:35:48.935Z,3.47
2023-02-06T04:40:51.049Z,3.45
2023-02-06T04:45:53.156Z,2.92
2023-02-06T04:50:55.234Z,3.20
2023-02-06T04:56:08.918Z,3.55
2023-02-06T05:01:11.169Z,3.40
2023-02-06T05:06:14.008Z,3.55
2023-02-06T05:11:16.171Z,3.45
2023-02-06T05:16:19.232Z,5.15
2023-02-06T05:21:21.893Z,19.95
2023-02-06T05:26:24.226Z,16.40
2023-02-06T05:31:26.543Z,2.70
2023-02-06T05:36:29.598Z,3.50
2023-02-06T05:41:31.911Z,3.45
2023-02-06T05:46:34.003Z,5.53
2023-02-06T05:51:36.277Z,9.88
2023-02-06T05:56:38.471Z,4.15
2023-02-06T06:01:40.597Z,4.55
2023-02-06T06:06:42.676Z,4.53
2023-02-06T06:11:44.808Z,4.10
2023-02-06T06:16:46.950Z,3.60
2023-02-06T06:21:49.148Z,3.60
2023-02-06T06:26:51.397Z,3.50
2023-02-06T06:31:54.139Z,4.63
2023-02-06T06:36:56.407Z,4.05
2023-02-06T06:41:58.555Z,4.57
2023-02-06T06:47:00.645Z,4.10
2023-02-06T06:52:03.640Z,3.83
2023-02-06T06:57:06.626Z,7.70
2023-02-06T07:02:10.332Z,3.97
2023-02-06T07:07:12.430Z,3.35
2023-02-06T07:12:14.597Z,3.22
2023-02-06T07:17:16.718Z,4.22
2023-02-06T07:22:21.868Z,3.47
2023-02-06T07:27:24.072Z,3.67
2023-02-06T07:32:27.361Z,3.30
2023-02-06T07:37:29.498Z,7.53
2023-02-06T07:42:33.746Z,3.28
2023-02-06T07:47:35.837Z,3.42
2023-02-06T07:52:38.153Z,3.33
2023-02-06T07:57:40.237Z,3.72
2023-02-06T08:02:42.760Z,3.80
2023-02-06T08:07:45.000Z,4.30
2023-02-06T08:12:47.361Z,4.28
2023-02-06T08:17:49.646Z,4.15
2023-02-06T08:22:51.891Z,4.18
2023-02-06T08:27:57.337Z,3.10
2023-02-06T08:32:59.643Z,3.35
2023-02-06T08:38:01.928Z,2.80
2023-02-06T08:43:04.199Z,3.20
2023-02-06T08:48:06.627Z,3.05
2023-02-06T08:53:08.936Z,2.70
2023-02-06T08:58:11.147Z,2.75
2023-02-06T09:03:13.318Z,5.13
2023-02-06T09:08:15.814Z,4.78
2023-02-06T09:13:18.018Z,6.25
2023-02-06T09:18:20.653Z,2.75
2023-02-06T09:23:22.836Z,3.28
2023-02-06T09:28:25.071Z,2.65
2023-02-06T09:33:27.677Z,3.33
2023-02-06T09:38:29.941Z,2.20
2023-02-06T09:43:34.026Z,4.57
2023-02-06T09:48:39.975Z,2.63
2023-02-06T09:53:48.141Z,2.50
2023-02-06T09:59:06.157Z,2.55
2023-02-06T10:04:33.820Z,2.28
2023-02-06T10:09:52.276Z,3.85
2023-02-06T10:15:07.737Z,2.10
2023-02-06T10:20:22.936Z,2.50
2023-02-06T10:25:37.416Z,3.20
2023-02-06T10:31:03.840Z,2.88
2023-02-06T10:36:24.501Z,2.83
2023-02-06T10:42:00.965Z,3.20
2023-02-06T10:47:11.450Z,2.38
2023-02-06T10:57:20.733Z,2.53
2023-02-06T11:02:22.896Z,3.38
2023-02-06T11:07:38.607Z,4.97
2023-02-06T11:13:11.421Z,3.15
2023-02-06T11:18:19.613Z,2.92
2023-02-06T11:23:27.541Z,3.92
2023-02-06T11:28:30.877Z,2.30
2023-02-06T11:33:42.174Z,2.45
2023-02-06T11:38:54.754Z,2.83
2023-02-06T11:44:02.951Z,3.00
2023-02-06T11:49:20.258Z,2.33
2023-02-06T11:54:29.298Z,2.65
2023-02-06T11:59:34.889Z,3.97
2023-02-06T12:04:41.715Z,2.95
2023-02-06T12:09:44.033Z,3.22
2023-02-06T12:14:49.682Z,3.10
2023-02-06T12:20:03.247Z,2.90
2023-02-06T12:25:05.878Z,4.00
2023-02-06T12:30:27.866Z,2.45
2023-02-06T12:35:44.161Z,3.00
2023-02-06T12:40:49.337Z,3.40
2023-02-06T12:46:02.862Z,3.47
2023-02-06T12:51:29.117Z,3.72
2023-02-06T12:56:49.202Z,3.13
2023-02-06T13:01:56.818Z,2.40
2023-02-06T13:07:06.826Z,3.00
2023-02-06T13:12:16.301Z,3.20
2023-02-06T13:17:27.206Z,3.30
2023-02-06T13:22:40.312Z,3.25
2023-02-06T13:27:42.588Z,2.15
2023-02-06T13:32:48.678Z,2.47
2023-02-06T13:37:52.102Z,3.17
2023-02-06T13:43:14.088Z,2.75
2023-02-06T13:48:47.833Z,3.85
2023-02-06T13:54:01.864Z,3.88
2023-02-06T13:59:24.243Z,5.75
2023-02-06T14:04:30.320Z,3.42
2023-02-06T14:09:50.320Z,4.15
2023-02-06T14:15:18.945Z,2.90
2023-02-06T14:20:47.712Z,3.63
2023-02-06T14:26:01.179Z,4.43
2023-02-06T14:31:13.577Z,13.77
2023-02-06T14:36:41.322Z,4.00
2023-02-06T14:41:43.692Z,3.10
2023-02-06T14:46:46.385Z,3.45
2023-02-06T14:51:51.662Z,4.18
2023-02-06T14:56:59.288Z,5.40
2023-02-06T15:02:14.095Z,4.60
2023-02-06T15:07:25.474Z,3.92
2023-02-06T15:12:29.536Z,3.58
2023-02-06T15:17:32.597Z,3.50
2023-02-06T15:22:36.157Z,4.20
2023-02-06T15:27:39.196Z,5.07
2023-02-06T15:32:41.531Z,4.03
2023-02-06T15:37:43.838Z,4.22
2023-02-06T15:42:50.545Z,4.88
2023-02-06T15:47:54.951Z,5.47
2023-02-06T15:52:57.280Z,4.78
2023-02-06T15:58:02.394Z,7.03
2023-02-06T16:03:08.710Z,6.00
2023-02-06T16:08:23.519Z,9.48
2023-02-06T16:13:28.660Z,7.70
2023-02-06T16:18:33.975Z,6.65
2023-02-06T16:23:51.704Z,5.90
2023-02-06T16:29:27.988Z,6.25
2023-02-06T16:34:40.965Z,6.20
2023-02-06T16:39:44.448Z,7.57
2023-02-06T16:44:50.088Z,9.40
2023-02-06T16:49:52.501Z,5.88
2023-02-06T16:55:02.085Z,7.20
2023-02-06T17:00:25.685Z,10.30
2023-02-06T17:05:29.384Z,9.85
2023-02-06T17:10:31.588Z,9.68
2023-02-06T17:15:33.935Z,10.10
2023-02-06T17:20:39.486Z,7.80
2023-02-06T17:25:44.300Z,8.20
2023-02-06T17:30:46.913Z,8.50
2023-02-06T17:35:49.506Z,6.88
2023-02-06T17:40:51.843Z,8.75
2023-02-06T17:45:53.963Z,7.50
2023-02-06T17:50:56.075Z,7.22
2023-02-06T17:55:58.218Z,8.23
2023-02-06T18:01:00.467Z,9.20
2023-02-06T18:06:03.280Z,8.27
2023-02-06T18:11:13.661Z,9.40
2023-02-06T18:16:21.535Z,9.50
2023-02-06T18:21:24.963Z,7.55
2023-02-06T18:26:28.011Z,7.47
2023-02-06T18:31:35.521Z,10.82
2023-02-06T18:36:38.462Z,14.90
2023-02-06T18:41:58.821Z,16.42
2023-02-06T18:47:00.914Z,14.27
2023-02-06T18:52:04.001Z,11.75
2023-02-06T18:57:06.703Z,22.23
2023-02-06T19:02:10.685Z,28.80
2023-02-06T19:07:34.508Z,13.43
2023-02-06T19:12:39.204Z,11.00
2023-02-06T19:17:42.163Z,13.15
2023-02-06T19:22:44.344Z,11.98
2023-02-06T19:27:46.554Z,9.60
2023-02-06T19:32:51.763Z,10.07
2023-02-06T19:37:53.832Z,10.63
2023-02-06T19:42:55.998Z,13.20
2023-02-06T19:47:58.434Z,9.82
2023-02-06T19:53:00.827Z,7.72
2023-02-06T19:58:03.275Z,11.45
2023-02-06T20:03:05.813Z,9.80
2023-02-06T20:08:08.004Z,9.13
2023-02-06T20:13:10.486Z,10.57
2023-02-06T20:18:12.987Z,8.23
2023-02-06T20:23:15.066Z,6.63
2023-02-06T20:28:17.216Z,6.40
2023-02-06T20:33:19.415Z,9.57
2023-02-06T20:38:21.570Z,12.50
2023-02-06T20:43:23.716Z,13.88
2023-02-06T20:48:26.114Z,13.07
2023-02-06T20:53:28.343Z,15.13
2023-02-06T20:58:30.673Z,11.55
2023-02-06T21:03:32.827Z,12.43
2023-02-06T21:08:35.146Z,12.27
2023-02-06T21:13:39.617Z,12.07
2023-02-06T21:18:42.929Z,11.63
2023-02-06T21:23:46.629Z,11.30
2023-02-06T21:28:48.800Z,10.05
2023-02-06T21:33:52.284Z,9.25
2023-02-06T21:38:54.465Z,7.80
2023-02-06T21:43:56.742Z,12.77
2023-02-06T21:48:58.910Z,8.07
2023-02-06T21:54:01.150Z,6.32
2023-02-06T21:59:03.303Z,8.32
2023-02-06T22:04:05.624Z,6.60
2023-02-06T22:09:10.043Z,8.15
2023-02-06T22:14:16.669Z,6.30
2023-02-06T22:19:18.931Z,5.93
2023-02-06T22:24:21.707Z,5.05
2023-02-06T22:29:24.137Z,5.38
2023-02-06T22:34:26.267Z,5.80
2023-02-06T22:39:28.410Z,5.78
2023-02-06T22:44:30.478Z,6.05
2023-02-06T22:49:32.584Z,6.10
2023-02-06T22:54:34.732Z,6.28
2023-02-06T22:59:36.812Z,6.13
2023-02-06T23:04:40.995Z,5.97
2023-02-06T23:09:43.209Z,6.00
2023-02-06T23:14:45.453Z,6.00
2023-02-06T23:19:47.587Z,4.63
2023-02-06T23:24:51.978Z,5.55
2023-02-06T23:29:54.135Z,4.63
2023-02-06T23:34:56.786Z,4.45
2023-02-06T23:39:59.174Z,5.90
2023-02-06T23:45:02.025Z,4.78
2023-02-06T23:50:05.715Z,5.38
2023-02-06T23:55:08.074Z,4.85
